sensor_id;sensor_type;location;lat;lon;timestamp;temperature;humidity
78767;SHT31;68092;51.982;5.680;2024-02-15T00:01:49;15.9;72.2
78767;SHT31;68092;51.982;5.680;2024-02-15T00:04:17;15.9;72.2
78767;SHT31;68092;51.982;5.680;2024-02-15T00:06:46;15.9;72.2
78767;SHT31;68092;51.982;5.680;2024-02-15T00:09:15;15.9;72.1
78767;SHT31;68092;51.982;5.680;2024-02-15T00:11:44;15.9;72.1
78767;SHT31;68092;51.982;5.680;2024-02-15T00:14:13;15.9;72.0
78767;SHT31;68092;51.982;5.680;2024-02-15T00:16:41;15.9;71.9
78767;SHT31;68092;51.982;5.680;2024-02-15T00:19:11;15.9;71.9
78767;SHT31;68092;51.982;5.680;2024-02-15T00:21:44;16.0;71.8
78767;SHT31;68092;51.982;5.680;2024-02-15T00:24:13;16.0;71.9
78767;SHT31;68092;51.982;5.680;2024-02-15T00:26:43;16.0;71.8
78767;SHT31;68092;51.982;5.680;2024-02-15T00:29:12;16.0;71.6
78767;SHT31;68092;51.982;5.680;2024-02-15T00:31:42;16.0;71.7
78767;SHT31;68092;51.982;5.680;2024-02-15T00:34:11;16.0;71.6
78767;SHT31;68092;51.982;5.680;2024-02-15T00:36:42;16.0;71.6
78767;SHT31;68092;51.982;5.680;2024-02-15T00:39:11;16.0;71.6
78767;SHT31;68092;51.982;5.680;2024-02-15T00:41:46;16.0;71.5
78767;SHT31;68092;51.982;5.680;2024-02-15T00:44:17;16.1;71.5
78767;SHT31;68092;51.982;5.680;2024-02-15T00:46:48;16.1;71.4
78767;SHT31;68092;51.982;5.680;2024-02-15T00:49:18;16.1;71.2
78767;SHT31;68092;51.982;5.680;2024-02-15T00:51:47;16.1;71.2
78767;SHT31;68092;51.982;5.680;2024-02-15T00:54:16;16.1;71.2
78767;SHT31;68092;51.982;5.680;2024-02-15T00:56:44;16.1;71.2
78767;SHT31;68092;51.982;5.680;2024-02-15T00:59:14;16.1;71.1
78767;SHT31;68092;51.982;5.680;2024-02-15T01:01:43;16.1;71.2
78767;SHT31;68092;51.982;5.680;2024-02-15T01:04:13;16.0;71.3
78767;SHT31;68092;51.982;5.680;2024-02-15T01:06:41;16.0;71.3
78767;SHT31;68092;51.982;5.680;2024-02-15T01:09:10;16.0;71.3
78767;SHT31;68092;51.982;5.680;2024-02-15T01:11:39;16.0;71.3
78767;SHT31;68092;51.982;5.680;2024-02-15T01:14:10;16.0;71.4
78767;SHT31;68092;51.982;5.680;2024-02-15T01:16:39;16.0;71.4
78767;SHT31;68092;51.982;5.680;2024-02-15T01:19:08;16.0;71.5
78767;SHT31;68092;51.982;5.680;2024-02-15T01:21:36;16.0;71.5
78767;SHT31;68092;51.982;5.680;2024-02-15T01:24:05;16.0;71.6
78767;SHT31;68092;51.982;5.680;2024-02-15T01:26:34;16.0;71.5
78767;SHT31;68092;51.982;5.680;2024-02-15T01:29:03;16.0;71.6
78767;SHT31;68092;51.982;5.680;2024-02-15T01:31:32;16.0;71.5
78767;SHT31;68092;51.982;5.680;2024-02-15T01:34:00;16.0;71.5
78767;SHT31;68092;51.982;5.680;2024-02-15T01:36:29;16.0;71.6
78767;SHT31;68092;51.982;5.680;2024-02-15T01:38:57;16.0;71.5
78767;SHT31;68092;51.982;5.680;2024-02-15T01:41:26;16.0;71.4
78767;SHT31;68092;51.982;5.680;2024-02-15T01:43:54;16.0;71.5
78767;SHT31;68092;51.982;5.680;2024-02-15T01:46:23;16.0;71.4
78767;SHT31;68092;51.982;5.680;2024-02-15T01:48:52;16.0;71.5
78767;SHT31;68092;51.982;5.680;2024-02-15T01:51:24;16.0;71.5
78767;SHT31;68092;51.982;5.680;2024-02-15T01:53:55;16.0;71.5
78767;SHT31;68092;51.982;5.680;2024-02-15T01:56:24;16.0;71.5
78767;SHT31;68092;51.982;5.680;2024-02-15T01:58:54;16.0;71.6
78767;SHT31;68092;51.982;5.680;2024-02-15T02:01:22;16.0;71.5
78767;SHT31;68092;51.982;5.680;2024-02-15T02:03:51;16.0;71.5
78767;SHT31;68092;51.982;5.680;2024-02-15T02:06:20;16.0;71.5
78767;SHT31;68092;51.982;5.680;2024-02-15T02:08:51;16.0;71.5
78767;SHT31;68092;51.982;5.680;2024-02-15T02:11:22;16.0;71.4
78767;SHT31;68092;51.982;5.680;2024-02-15T02:13:54;16.0;71.3
78767;SHT31;68092;51.982;5.680;2024-02-15T02:16:27;16.0;71.3
78767;SHT31;68092;51.982;5.680;2024-02-15T02:18:58;16.0;71.3
78767;SHT31;68092;51.982;5.680;2024-02-15T02:21:28;16.0;71.3
78767;SHT31;68092;51.982;5.680;2024-02-15T02:23:57;16.0;71.3
78767;SHT31;68092;51.982;5.680;2024-02-15T02:26:26;16.0;71.3
78767;SHT31;68092;51.982;5.680;2024-02-15T02:28:55;16.0;71.2
78767;SHT31;68092;51.982;5.680;2024-02-15T02:31:25;16.1;71.1
78767;SHT31;68092;51.982;5.680;2024-02-15T02:33:54;16.1;71.0
78767;SHT31;68092;51.982;5.680;2024-02-15T02:36:25;16.1;71.0
78767;SHT31;68092;51.982;5.680;2024-02-15T02:38:53;16.1;70.9
78767;SHT31;68092;51.982;5.680;2024-02-15T02:41:26;16.1;70.8
78767;SHT31;68092;51.982;5.680;2024-02-15T02:43:56;16.1;70.8
78767;SHT31;68092;51.982;5.680;2024-02-15T02:46:25;16.1;70.7
78767;SHT31;68092;51.982;5.680;2024-02-15T02:48:55;16.1;70.5
78767;SHT31;68092;51.982;5.680;2024-02-15T02:51:24;16.1;70.5
78767;SHT31;68092;51.982;5.680;2024-02-15T02:53:53;16.1;70.5
78767;SHT31;68092;51.982;5.680;2024-02-15T02:56:21;16.1;70.5
78767;SHT31;68092;51.982;5.680;2024-02-15T02:58:51;16.1;70.4
78767;SHT31;68092;51.982;5.680;2024-02-15T03:01:24;16.1;70.4
78767;SHT31;68092;51.982;5.680;2024-02-15T03:03:53;16.1;70.3
78767;SHT31;68092;51.982;5.680;2024-02-15T03:06:22;16.1;70.2
78767;SHT31;68092;51.982;5.680;2024-02-15T03:08:55;16.1;70.1
78767;SHT31;68092;51.982;5.680;2024-02-15T03:11:24;16.1;70.1
78767;SHT31;68092;51.982;5.680;2024-02-15T03:13:54;16.1;70.0
78767;SHT31;68092;51.982;5.680;2024-02-15T03:16:26;16.1;70.1
78767;SHT31;68092;51.982;5.680;2024-02-15T03:18:54;16.1;70.1
78767;SHT31;68092;51.982;5.680;2024-02-15T03:21:23;16.1;70.1
78767;SHT31;68092;51.982;5.680;2024-02-15T03:23:51;16.1;70.1
78767;SHT31;68092;51.982;5.680;2024-02-15T03:26:29;16.1;70.0
78767;SHT31;68092;51.982;5.680;2024-02-15T03:28:56;16.1;70.0
78767;SHT31;68092;51.982;5.680;2024-02-15T03:31:24;16.1;69.9
78767;SHT31;68092;51.982;5.680;2024-02-15T03:33:53;16.0;69.9
78767;SHT31;68092;51.982;5.680;2024-02-15T03:36:21;16.0;69.9
78767;SHT31;68092;51.982;5.680;2024-02-15T03:38:50;16.0;70.0
78767;SHT31;68092;51.982;5.680;2024-02-15T03:41:20;16.0;69.9
78767;SHT31;68092;51.982;5.680;2024-02-15T03:43:49;16.0;69.9
78767;SHT31;68092;51.982;5.680;2024-02-15T03:46:18;16.0;69.9
78767;SHT31;68092;51.982;5.680;2024-02-15T03:48:46;16.0;69.8
78767;SHT31;68092;51.982;5.680;2024-02-15T03:51:18;16.0;69.8
78767;SHT31;68092;51.982;5.680;2024-02-15T03:53:47;16.0;69.8
78767;SHT31;68092;51.982;5.680;2024-02-15T03:56:18;16.0;69.8
78767;SHT31;68092;51.982;5.680;2024-02-15T03:58:47;16.0;69.8
78767;SHT31;68092;51.982;5.680;2024-02-15T04:01:18;16.0;69.7
78767;SHT31;68092;51.982;5.680;2024-02-15T04:03:46;16.0;69.7
78767;SHT31;68092;51.982;5.680;2024-02-15T04:06:16;16.0;69.6
78767;SHT31;68092;51.982;5.680;2024-02-15T04:08:44;16.0;69.5
78767;SHT31;68092;51.982;5.680;2024-02-15T04:11:13;16.0;69.5
78767;SHT31;68092;51.982;5.680;2024-02-15T04:13:42;16.0;69.6
78767;SHT31;68092;51.982;5.680;2024-02-15T04:16:11;16.0;69.6
78767;SHT31;68092;51.982;5.680;2024-02-15T04:18:40;16.0;69.6
78767;SHT31;68092;51.982;5.680;2024-02-15T04:21:11;16.0;69.6
78767;SHT31;68092;51.982;5.680;2024-02-15T04:23:42;16.0;69.7
78767;SHT31;68092;51.982;5.680;2024-02-15T04:26:11;16.0;69.7
78767;SHT31;68092;51.982;5.680;2024-02-15T04:28:40;16.0;69.8
78767;SHT31;68092;51.982;5.680;2024-02-15T04:31:09;16.0;69.7
78767;SHT31;68092;51.982;5.680;2024-02-15T04:33:39;16.0;69.6
78767;SHT31;68092;51.982;5.680;2024-02-15T04:36:08;16.0;69.6
78767;SHT31;68092;51.982;5.680;2024-02-15T04:38:39;16.0;69.8
78767;SHT31;68092;51.982;5.680;2024-02-15T04:41:09;16.0;69.8
78767;SHT31;68092;51.982;5.680;2024-02-15T04:43:38;16.0;69.8
78767;SHT31;68092;51.982;5.680;2024-02-15T04:46:09;15.9;69.9
78767;SHT31;68092;51.982;5.680;2024-02-15T04:48:37;15.9;70.1
78767;SHT31;68092;51.982;5.680;2024-02-15T04:51:09;15.9;70.0
78767;SHT31;68092;51.982;5.680;2024-02-15T04:53:39;15.9;70.0
78767;SHT31;68092;51.982;5.680;2024-02-15T04:56:08;16.0;70.0
78767;SHT31;68092;51.982;5.680;2024-02-15T04:58:40;16.0;70.1
78767;SHT31;68092;51.982;5.680;2024-02-15T05:01:11;16.0;70.1
78767;SHT31;68092;51.982;5.680;2024-02-15T05:03:42;16.0;70.2
78767;SHT31;68092;51.982;5.680;2024-02-15T05:06:12;16.0;70.2
78767;SHT31;68092;51.982;5.680;2024-02-15T05:08:41;16.0;70.3
78767;SHT31;68092;51.982;5.680;2024-02-15T05:11:11;16.0;70.5
78767;SHT31;68092;51.982;5.680;2024-02-15T05:13:44;16.0;70.5
78767;SHT31;68092;51.982;5.680;2024-02-15T05:16:13;15.9;70.4
78767;SHT31;68092;51.982;5.680;2024-02-15T05:18:42;15.9;70.5
78767;SHT31;68092;51.982;5.680;2024-02-15T05:21:12;16.0;70.6
78767;SHT31;68092;51.982;5.680;2024-02-15T05:23:42;16.0;70.6
78767;SHT31;68092;51.982;5.680;2024-02-15T05:26:13;16.0;70.6
78767;SHT31;68092;51.982;5.680;2024-02-15T05:28:47;16.0;70.8
78767;SHT31;68092;51.982;5.680;2024-02-15T05:31:17;16.0;70.7
78767;SHT31;68092;51.982;5.680;2024-02-15T05:33:47;16.0;70.7
78767;SHT31;68092;51.982;5.680;2024-02-15T05:36:17;16.0;70.7
78767;SHT31;68092;51.982;5.680;2024-02-15T05:38:49;16.0;70.8
78767;SHT31;68092;51.982;5.680;2024-02-15T05:41:19;16.0;70.9
78767;SHT31;68092;51.982;5.680;2024-02-15T05:43:49;16.0;70.9
78767;SHT31;68092;51.982;5.680;2024-02-15T05:46:20;16.0;70.9
78767;SHT31;68092;51.982;5.680;2024-02-15T05:48:52;16.0;70.9
78767;SHT31;68092;51.982;5.680;2024-02-15T05:51:25;16.0;70.8
78767;SHT31;68092;51.982;5.680;2024-02-15T05:53:54;16.0;70.8
78767;SHT31;68092;51.982;5.680;2024-02-15T05:56:26;16.0;70.8
78767;SHT31;68092;51.982;5.680;2024-02-15T05:58:55;15.9;70.9
78767;SHT31;68092;51.982;5.680;2024-02-15T06:01:24;15.9;71.0
78767;SHT31;68092;51.982;5.680;2024-02-15T06:03:55;15.9;71.1
78767;SHT31;68092;51.982;5.680;2024-02-15T06:06:24;15.9;71.1
78767;SHT31;68092;51.982;5.680;2024-02-15T06:08:53;15.9;71.2
78767;SHT31;68092;51.982;5.680;2024-02-15T06:11:26;15.8;71.3
78767;SHT31;68092;51.982;5.680;2024-02-15T06:13:56;15.8;71.4
78767;SHT31;68092;51.982;5.680;2024-02-15T06:16:24;15.8;71.5
78767;SHT31;68092;51.982;5.680;2024-02-15T06:18:53;15.8;71.6
78767;SHT31;68092;51.982;5.680;2024-02-15T06:21:22;15.8;71.6
78767;SHT31;68092;51.982;5.680;2024-02-15T06:23:50;15.8;71.6
78767;SHT31;68092;51.982;5.680;2024-02-15T06:26:19;15.8;71.7
78767;SHT31;68092;51.982;5.680;2024-02-15T06:28:48;15.8;71.7
78767;SHT31;68092;51.982;5.680;2024-02-15T06:31:33;15.8;71.5
78767;SHT31;68092;51.982;5.680;2024-02-15T06:34:17;15.8;71.5
78767;SHT31;68092;51.982;5.680;2024-02-15T06:37:04;15.8;71.5
78767;SHT31;68092;51.982;5.680;2024-02-15T06:41:48;15.9;71.3
78767;SHT31;68092;51.982;5.680;2024-02-15T06:44:17;15.9;71.4
78767;SHT31;68092;51.982;5.680;2024-02-15T06:46:48;15.9;71.4
78767;SHT31;68092;51.982;5.680;2024-02-15T06:49:16;15.9;71.4
78767;SHT31;68092;51.982;5.680;2024-02-15T06:51:47;15.9;71.4
78767;SHT31;68092;51.982;5.680;2024-02-15T06:54:16;15.9;71.4
78767;SHT31;68092;51.982;5.680;2024-02-15T06:56:45;15.9;71.5
78767;SHT31;68092;51.982;5.680;2024-02-15T06:59:14;15.9;71.4
78767;SHT31;68092;51.982;5.680;2024-02-15T07:01:44;15.9;71.3
78767;SHT31;68092;51.982;5.680;2024-02-15T07:04:13;15.9;71.3
78767;SHT31;68092;51.982;5.680;2024-02-15T07:06:43;15.9;71.6
78767;SHT31;68092;51.982;5.680;2024-02-15T07:09:14;15.9;71.5
78767;SHT31;68092;51.982;5.680;2024-02-15T07:11:46;15.9;71.5
78767;SHT31;68092;51.982;5.680;2024-02-15T07:14:14;15.9;71.5
78767;SHT31;68092;51.982;5.680;2024-02-15T07:16:46;15.9;71.5
78767;SHT31;68092;51.982;5.680;2024-02-15T07:19:16;15.9;71.3
78767;SHT31;68092;51.982;5.680;2024-02-15T07:21:45;16.0;71.3
78767;SHT31;68092;51.982;5.680;2024-02-15T07:24:13;16.0;71.3
78767;SHT31;68092;51.982;5.680;2024-02-15T07:26:44;16.0;71.2
78767;SHT31;68092;51.982;5.680;2024-02-15T07:29:12;16.0;71.2
78767;SHT31;68092;51.982;5.680;2024-02-15T07:31:41;16.0;71.3
78767;SHT31;68092;51.982;5.680;2024-02-15T07:34:10;16.0;71.3
78767;SHT31;68092;51.982;5.680;2024-02-15T07:36:39;16.0;71.4
78767;SHT31;68092;51.982;5.680;2024-02-15T07:39:09;16.0;71.3
78767;SHT31;68092;51.982;5.680;2024-02-15T07:41:45;16.0;71.3
78767;SHT31;68092;51.982;5.680;2024-02-15T07:44:15;16.0;71.3
78767;SHT31;68092;51.982;5.680;2024-02-15T07:46:46;16.0;71.4
78767;SHT31;68092;51.982;5.680;2024-02-15T07:49:17;16.0;71.4
78767;SHT31;68092;51.982;5.680;2024-02-15T07:51:46;16.0;71.4
78767;SHT31;68092;51.982;5.680;2024-02-15T07:54:20;16.0;71.5
78767;SHT31;68092;51.982;5.680;2024-02-15T07:56:49;16.0;71.6
78767;SHT31;68092;51.982;5.680;2024-02-15T07:59:18;16.0;71.5
78767;SHT31;68092;51.982;5.680;2024-02-15T08:01:47;16.0;71.4
78767;SHT31;68092;51.982;5.680;2024-02-15T08:04:16;16.0;71.5
78767;SHT31;68092;51.982;5.680;2024-02-15T08:06:50;16.0;71.5
78767;SHT31;68092;51.982;5.680;2024-02-15T08:09:20;16.1;71.6
78767;SHT31;68092;51.982;5.680;2024-02-15T08:11:52;16.1;71.5
78767;SHT31;68092;51.982;5.680;2024-02-15T08:14:22;16.1;71.4
78767;SHT31;68092;51.982;5.680;2024-02-15T08:16:52;16.1;71.2
78767;SHT31;68092;51.982;5.680;2024-02-15T08:19:22;16.1;71.3
78767;SHT31;68092;51.982;5.680;2024-02-15T08:21:53;16.1;71.1
78767;SHT31;68092;51.982;5.680;2024-02-15T08:24:22;16.2;71.1
78767;SHT31;68092;51.982;5.680;2024-02-15T08:26:51;16.2;71.2
78767;SHT31;68092;51.982;5.680;2024-02-15T08:29:20;16.2;71.1
78767;SHT31;68092;51.982;5.680;2024-02-15T08:31:49;16.2;71.1
78767;SHT31;68092;51.982;5.680;2024-02-15T08:34:19;16.2;71.1
78767;SHT31;68092;51.982;5.680;2024-02-15T08:36:49;16.2;71.1
78767;SHT31;68092;51.982;5.680;2024-02-15T08:39:19;16.3;70.9
78767;SHT31;68092;51.982;5.680;2024-02-15T08:41:50;16.3;71.0
78767;SHT31;68092;51.982;5.680;2024-02-15T08:44:21;16.3;70.9
78767;SHT31;68092;51.982;5.680;2024-02-15T08:46:49;16.3;70.8
78767;SHT31;68092;51.982;5.680;2024-02-15T08:49:18;16.3;70.8
78767;SHT31;68092;51.982;5.680;2024-02-15T08:51:49;16.3;70.9
78767;SHT31;68092;51.982;5.680;2024-02-15T08:54:18;16.3;71.0
78767;SHT31;68092;51.982;5.680;2024-02-15T08:56:48;16.3;71.0
78767;SHT31;68092;51.982;5.680;2024-02-15T08:59:18;16.3;71.0
78767;SHT31;68092;51.982;5.680;2024-02-15T09:01:46;16.2;71.1
78767;SHT31;68092;51.982;5.680;2024-02-15T09:04:15;16.2;71.1
78767;SHT31;68092;51.982;5.680;2024-02-15T09:06:43;16.2;71.2
78767;SHT31;68092;51.982;5.680;2024-02-15T09:09:12;16.2;71.2
78767;SHT31;68092;51.982;5.680;2024-02-15T09:11:40;16.2;71.2
78767;SHT31;68092;51.982;5.680;2024-02-15T09:14:09;16.2;71.3
78767;SHT31;68092;51.982;5.680;2024-02-15T09:16:38;16.2;71.4
78767;SHT31;68092;51.982;5.680;2024-02-15T09:19:07;16.2;71.4
78767;SHT31;68092;51.982;5.680;2024-02-15T09:21:35;16.2;71.5
78767;SHT31;68092;51.982;5.680;2024-02-15T09:24:06;16.2;71.3
78767;SHT31;68092;51.982;5.680;2024-02-15T09:26:34;16.2;71.4
78767;SHT31;68092;51.982;5.680;2024-02-15T09:29:03;16.1;71.6
78767;SHT31;68092;51.982;5.680;2024-02-15T09:31:31;16.1;71.8
78767;SHT31;68092;51.982;5.680;2024-02-15T09:34:01;16.1;71.8
78767;SHT31;68092;51.982;5.680;2024-02-15T09:36:35;16.1;71.9
78767;SHT31;68092;51.982;5.680;2024-02-15T09:39:04;16.1;72.0
78767;SHT31;68092;51.982;5.680;2024-02-15T09:41:33;16.0;72.1
78767;SHT31;68092;51.982;5.680;2024-02-15T09:44:02;16.0;72.2
78767;SHT31;68092;51.982;5.680;2024-02-15T09:46:35;16.0;72.1
78767;SHT31;68092;51.982;5.680;2024-02-15T09:49:06;16.0;72.1
78767;SHT31;68092;51.982;5.680;2024-02-15T09:51:36;16.0;72.1
78767;SHT31;68092;51.982;5.680;2024-02-15T09:54:05;16.0;72.1
78767;SHT31;68092;51.982;5.680;2024-02-15T09:56:37;16.0;72.3
78767;SHT31;68092;51.982;5.680;2024-02-15T09:59:08;16.0;72.2
78767;SHT31;68092;51.982;5.680;2024-02-15T10:01:37;16.0;72.1
78767;SHT31;68092;51.982;5.680;2024-02-15T10:04:07;16.0;72.0
78767;SHT31;68092;51.982;5.680;2024-02-15T10:06:35;16.1;71.9
78767;SHT31;68092;51.982;5.680;2024-02-15T10:09:37;16.0;71.9
78767;SHT31;68092;51.982;5.680;2024-02-15T10:12:09;16.1;71.8
78767;SHT31;68092;51.982;5.680;2024-02-15T10:14:38;16.1;71.9
78767;SHT31;68092;51.982;5.680;2024-02-15T10:17:09;16.1;71.9
78767;SHT31;68092;51.982;5.680;2024-02-15T10:19:38;16.1;71.8
78767;SHT31;68092;51.982;5.680;2024-02-15T10:22:10;16.1;71.6
78767;SHT31;68092;51.982;5.680;2024-02-15T10:24:43;16.1;71.5
78767;SHT31;68092;51.982;5.680;2024-02-15T10:27:12;16.1;71.6
78767;SHT31;68092;51.982;5.680;2024-02-15T10:29:41;16.1;71.5
78767;SHT31;68092;51.982;5.680;2024-02-15T10:32:09;16.1;71.5
78767;SHT31;68092;51.982;5.680;2024-02-15T10:34:43;16.1;71.5
78767;SHT31;68092;51.982;5.680;2024-02-15T10:37:14;16.1;71.7
78767;SHT31;68092;51.982;5.680;2024-02-15T10:39:45;16.1;71.7
78767;SHT31;68092;51.982;5.680;2024-02-15T10:42:17;16.1;71.7
78767;SHT31;68092;51.982;5.680;2024-02-15T10:44:47;16.1;71.6
78767;SHT31;68092;51.982;5.680;2024-02-15T10:47:18;16.1;71.7
78767;SHT31;68092;51.982;5.680;2024-02-15T10:49:49;16.1;71.7
78767;SHT31;68092;51.982;5.680;2024-02-15T10:52:20;16.1;71.8
78767;SHT31;68092;51.982;5.680;2024-02-15T10:54:52;16.1;71.8
78767;SHT31;68092;51.982;5.680;2024-02-15T10:57:22;16.1;72.1
78767;SHT31;68092;51.982;5.680;2024-02-15T10:59:56;16.1;72.2
78767;SHT31;68092;51.982;5.680;2024-02-15T11:02:37;16.2;72.1
78767;SHT31;68092;51.982;5.680;2024-02-15T11:05:09;16.2;72.1
78767;SHT31;68092;51.982;5.680;2024-02-15T11:07:41;16.2;72.0
78767;SHT31;68092;51.982;5.680;2024-02-15T11:10:10;16.2;71.7
78767;SHT31;68092;51.982;5.680;2024-02-15T11:12:43;16.2;72.0
78767;SHT31;68092;51.982;5.680;2024-02-15T11:18:06;16.3;72.1
78767;SHT31;68092;51.982;5.680;2024-02-15T11:20:49;16.3;71.8
78767;SHT31;68092;51.982;5.680;2024-02-15T11:23:27;16.3;71.9
78767;SHT31;68092;51.982;5.680;2024-02-15T11:25:56;16.3;71.6
78767;SHT31;68092;51.982;5.680;2024-02-15T11:28:43;16.4;71.7
78767;SHT31;68092;51.982;5.680;2024-02-15T11:34:44;16.4;71.7
78767;SHT31;68092;51.982;5.680;2024-02-15T11:40:20;16.4;71.5
78767;SHT31;68092;51.982;5.680;2024-02-15T11:42:52;16.5;71.4
78767;SHT31;68092;51.982;5.680;2024-02-15T11:45:22;16.5;71.4
78767;SHT31;68092;51.982;5.680;2024-02-15T11:47:53;16.5;71.6
78767;SHT31;68092;51.982;5.680;2024-02-15T11:50:23;16.5;71.4
78767;SHT31;68092;51.982;5.680;2024-02-15T11:52:51;16.5;71.9
78767;SHT31;68092;51.982;5.680;2024-02-15T11:55:21;16.5;71.7
78767;SHT31;68092;51.982;5.680;2024-02-15T11:57:56;16.5;71.7
78767;SHT31;68092;51.982;5.680;2024-02-15T12:00:37;16.5;71.5
78767;SHT31;68092;51.982;5.680;2024-02-15T12:04:26;16.6;71.6
78767;SHT31;68092;51.982;5.680;2024-02-15T12:08:23;16.6;71.7
78767;SHT31;68092;51.982;5.680;2024-02-15T12:11:08;16.6;71.8
78767;SHT31;68092;51.982;5.680;2024-02-15T12:13:52;16.7;72.1
78767;SHT31;68092;51.982;5.680;2024-02-15T12:16:37;16.7;71.7
78767;SHT31;68092;51.982;5.680;2024-02-15T12:19:22;16.7;71.7
78767;SHT31;68092;51.982;5.680;2024-02-15T12:21:53;16.7;71.4
78767;SHT31;68092;51.982;5.680;2024-02-15T12:24:23;16.8;71.7
78767;SHT31;68092;51.982;5.680;2024-02-15T12:27:03;16.8;71.6
78767;SHT31;68092;51.982;5.680;2024-02-15T12:29:32;16.8;71.6
78767;SHT31;68092;51.982;5.680;2024-02-15T12:32:01;16.9;71.5
78767;SHT31;68092;51.982;5.680;2024-02-15T12:34:31;16.9;71.4
78767;SHT31;68092;51.982;5.680;2024-02-15T12:37:08;16.9;71.2
78767;SHT31;68092;51.982;5.680;2024-02-15T12:39:37;16.9;70.9
78767;SHT31;68092;51.982;5.680;2024-02-15T12:42:08;17.0;71.4
78767;SHT31;68092;51.982;5.680;2024-02-15T12:44:42;17.0;70.8
78767;SHT31;68092;51.982;5.680;2024-02-15T12:47:18;17.0;70.6
78767;SHT31;68092;51.982;5.680;2024-02-15T12:49:48;17.0;70.6
78767;SHT31;68092;51.982;5.680;2024-02-15T12:52:39;17.0;70.7
78767;SHT31;68092;51.982;5.680;2024-02-15T12:55:13;17.1;70.9
78767;SHT31;68092;51.982;5.680;2024-02-15T12:57:43;17.1;71.6
78767;SHT31;68092;51.982;5.680;2024-02-15T13:00:17;17.1;70.9
78767;SHT31;68092;51.982;5.680;2024-02-15T13:02:48;17.1;70.0
78767;SHT31;68092;51.982;5.680;2024-02-15T13:05:18;17.2;70.0
78767;SHT31;68092;51.982;5.680;2024-02-15T13:07:49;17.2;69.8
78767;SHT31;68092;51.982;5.680;2024-02-15T13:10:18;17.2;70.1
78767;SHT31;68092;51.982;5.680;2024-02-15T13:12:47;17.2;70.1
78767;SHT31;68092;51.982;5.680;2024-02-15T13:15:17;17.2;70.5
78767;SHT31;68092;51.982;5.680;2024-02-15T13:17:48;17.3;70.7
78767;SHT31;68092;51.982;5.680;2024-02-15T13:20:17;17.3;70.6
78767;SHT31;68092;51.982;5.680;2024-02-15T13:22:51;17.3;69.9
78767;SHT31;68092;51.982;5.680;2024-02-15T13:25:20;17.4;69.3
78767;SHT31;68092;51.982;5.680;2024-02-15T13:27:49;17.4;69.1
78767;SHT31;68092;51.982;5.680;2024-02-15T13:30:17;17.4;69.1
78767;SHT31;68092;51.982;5.680;2024-02-15T13:32:51;17.4;68.8
78767;SHT31;68092;51.982;5.680;2024-02-15T13:35:21;17.4;68.3
78767;SHT31;68092;51.982;5.680;2024-02-15T13:37:51;17.5;68.7
78767;SHT31;68092;51.982;5.680;2024-02-15T13:40:21;17.5;68.6
78767;SHT31;68092;51.982;5.680;2024-02-15T13:42:52;17.5;68.2
78767;SHT31;68092;51.982;5.680;2024-02-15T13:45:23;17.5;68.3
78767;SHT31;68092;51.982;5.680;2024-02-15T13:47:56;17.5;67.6
78767;SHT31;68092;51.982;5.680;2024-02-15T13:50:25;17.5;67.8
78767;SHT31;68092;51.982;5.680;2024-02-15T13:52:54;17.5;67.8
78767;SHT31;68092;51.982;5.680;2024-02-15T13:55:25;17.5;67.4
78767;SHT31;68092;51.982;5.680;2024-02-15T13:57:55;17.5;67.8
78767;SHT31;68092;51.982;5.680;2024-02-15T14:00:25;17.5;67.3
78767;SHT31;68092;51.982;5.680;2024-02-15T14:03:01;17.6;67.7
78767;SHT31;68092;51.982;5.680;2024-02-15T14:05:32;17.6;67.4
78767;SHT31;68092;51.982;5.680;2024-02-15T14:08:03;17.6;67.7
78767;SHT31;68092;51.982;5.680;2024-02-15T14:10:33;17.6;67.7
78767;SHT31;68092;51.982;5.680;2024-02-15T14:13:04;17.6;67.8
78767;SHT31;68092;51.982;5.680;2024-02-15T14:15:35;17.6;68.0
78767;SHT31;68092;51.982;5.680;2024-02-15T14:18:07;17.6;68.2
78767;SHT31;68092;51.982;5.680;2024-02-15T14:20:39;17.6;67.9
78767;SHT31;68092;51.982;5.680;2024-02-15T14:23:08;17.6;67.8
78767;SHT31;68092;51.982;5.680;2024-02-15T14:25:40;17.6;68.2
78767;SHT31;68092;51.982;5.680;2024-02-15T14:28:09;17.6;68.2
78767;SHT31;68092;51.982;5.680;2024-02-15T14:30:39;17.6;68.2
78767;SHT31;68092;51.982;5.680;2024-02-15T14:33:25;17.7;67.7
78767;SHT31;68092;51.982;5.680;2024-02-15T14:35:54;17.7;67.9
78767;SHT31;68092;51.982;5.680;2024-02-15T14:38:23;17.7;67.8
78767;SHT31;68092;51.982;5.680;2024-02-15T14:40:51;17.7;68.0
78767;SHT31;68092;51.982;5.680;2024-02-15T14:43:22;17.7;68.1
78767;SHT31;68092;51.982;5.680;2024-02-15T14:45:53;17.7;68.2
78767;SHT31;68092;51.982;5.680;2024-02-15T14:48:22;17.8;68.1
78767;SHT31;68092;51.982;5.680;2024-02-15T14:50:52;17.8;67.7
78767;SHT31;68092;51.982;5.680;2024-02-15T14:53:22;17.8;67.6
78767;SHT31;68092;51.982;5.680;2024-02-15T14:55:50;17.8;67.3
78767;SHT31;68092;51.982;5.680;2024-02-15T14:58:20;17.8;67.3
78767;SHT31;68092;51.982;5.680;2024-02-15T15:00:50;17.8;67.4
78767;SHT31;68092;51.982;5.680;2024-02-15T15:03:19;17.8;67.5
78767;SHT31;68092;51.982;5.680;2024-02-15T15:05:50;17.9;67.3
78767;SHT31;68092;51.982;5.680;2024-02-15T15:08:35;17.9;67.4
78767;SHT31;68092;51.982;5.680;2024-02-15T15:11:20;17.9;67.4
78767;SHT31;68092;51.982;5.680;2024-02-15T15:14:04;17.9;67.2
78767;SHT31;68092;51.982;5.680;2024-02-15T15:16:33;17.9;67.2
78767;SHT31;68092;51.982;5.680;2024-02-15T15:19:02;17.9;67.2
78767;SHT31;68092;51.982;5.680;2024-02-15T15:21:31;17.9;67.2
78767;SHT31;68092;51.982;5.680;2024-02-15T15:23:59;17.9;67.1
78767;SHT31;68092;51.982;5.680;2024-02-15T15:26:28;17.9;67.2
78767;SHT31;68092;51.982;5.680;2024-02-15T15:28:57;17.9;67.1
78767;SHT31;68092;51.982;5.680;2024-02-15T15:31:26;17.9;67.1
78767;SHT31;68092;51.982;5.680;2024-02-15T15:33:56;17.9;67.0
78767;SHT31;68092;51.982;5.680;2024-02-15T15:36:24;17.9;66.9
78767;SHT31;68092;51.982;5.680;2024-02-15T15:38:53;17.9;66.8
78767;SHT31;68092;51.982;5.680;2024-02-15T15:41:21;18.0;66.8
78767;SHT31;68092;51.982;5.680;2024-02-15T15:43:50;18.0;66.8
78767;SHT31;68092;51.982;5.680;2024-02-15T15:46:19;18.0;66.7
78767;SHT31;68092;51.982;5.680;2024-02-15T15:48:47;18.0;66.6
78767;SHT31;68092;51.982;5.680;2024-02-15T15:51:16;18.0;66.6
78767;SHT31;68092;51.982;5.680;2024-02-15T15:53:44;18.0;66.6
78767;SHT31;68092;51.982;5.680;2024-02-15T15:56:15;17.9;66.6
78767;SHT31;68092;51.982;5.680;2024-02-15T15:58:45;17.9;66.6
78767;SHT31;68092;51.982;5.680;2024-02-15T16:01:15;17.9;66.3
78767;SHT31;68092;51.982;5.680;2024-02-15T16:03:47;17.9;66.2
78767;SHT31;68092;51.982;5.680;2024-02-15T16:06:17;17.9;66.1
78767;SHT31;68092;51.982;5.680;2024-02-15T16:08:45;17.9;66.1
78767;SHT31;68092;51.982;5.680;2024-02-15T16:11:15;17.9;66.2
78767;SHT31;68092;51.982;5.680;2024-02-15T16:13:44;17.9;66.0
78767;SHT31;68092;51.982;5.680;2024-02-15T16:16:15;17.9;65.8
78767;SHT31;68092;51.982;5.680;2024-02-15T16:18:43;17.9;65.5
78767;SHT31;68092;51.982;5.680;2024-02-15T16:21:12;17.9;65.3
78767;SHT31;68092;51.982;5.680;2024-02-15T16:23:41;17.8;65.4
78767;SHT31;68092;51.982;5.680;2024-02-15T16:26:09;17.8;65.4
78767;SHT31;68092;51.982;5.680;2024-02-15T16:28:38;17.8;65.1
78767;SHT31;68092;51.982;5.680;2024-02-15T16:31:07;17.8;64.8
78767;SHT31;68092;51.982;5.680;2024-02-15T16:33:37;17.8;64.7
78767;SHT31;68092;51.982;5.680;2024-02-15T16:36:07;17.8;64.1
78767;SHT31;68092;51.982;5.680;2024-02-15T16:38:35;17.8;63.9